createdAt,value
2019-03-06T00:00:04.737Z,2.20
2019-03-06T00:01:04.272Z,2.20
2019-03-06T00:02:05.109Z,2.10
2019-03-06T00:03:04.351Z,2.10
2019-03-06T00:04:04.592Z,2.10
2019-03-06T00:05:04.927Z,2.10
2019-03-06T00:06:04.453Z,2.10
2019-03-06T00:07:04.562Z,2.10
2019-03-06T00:08:04.761Z,2.10
2019-03-06T00:09:04.950Z,2.10
2019-03-06T00:10:05.125Z,2.20
2019-03-06T00:11:04.592Z,2.20
2019-03-06T00:12:04.983Z,2.10
2019-03-06T00:13:04.750Z,2.20
2019-03-06T00:14:04.850Z,2.20
2019-03-06T00:15:04.473Z,2.20
2019-03-06T00:16:04.452Z,2.20
2019-03-06T00:17:04.716Z,2.20
2019-03-06T00:18:05.251Z,2.20
2019-03-06T00:19:04.329Z,2.20
2019-03-06T00:20:04.835Z,2.20
2019-03-06T00:21:04.315Z,2.20
2019-03-06T00:22:04.592Z,2.20
2019-03-06T00:23:04.799Z,2.20
2019-03-06T00:24:05.192Z,2.20
2019-03-06T00:25:04.328Z,2.20
2019-03-06T00:26:04.544Z,2.20
2019-03-06T00:27:04.531Z,2.20
2019-03-06T00:28:05.121Z,2.20
2019-03-06T00:29:09.316Z,2.30
2019-03-06T00:30:04.839Z,2.20
2019-03-06T00:31:05.017Z,2.30
2019-03-06T00:32:04.529Z,2.30
2019-03-06T00:33:04.636Z,2.30
2019-03-06T00:34:04.779Z,2.30
2019-03-06T00:35:04.756Z,2.30
2019-03-06T00:36:04.903Z,2.30
2019-03-06T00:37:04.579Z,2.30
2019-03-06T00:38:04.714Z,2.30
2019-03-06T00:39:04.797Z,2.30
2019-03-06T00:40:04.954Z,2.30
2019-03-06T00:41:05.176Z,2.30
2019-03-06T00:42:04.618Z,2.30
2019-03-06T00:43:04.901Z,2.30
2019-03-06T00:44:05.209Z,2.30
2019-03-06T00:45:04.581Z,2.30
2019-03-06T00:46:04.717Z,2.30
2019-03-06T00:47:05.070Z,2.30
2019-03-06T00:48:04.516Z,2.20
2019-03-06T00:49:05.117Z,2.20
2019-03-06T00:50:04.780Z,2.20
2019-03-06T00:51:04.888Z,2.20
2019-03-06T00:52:04.893Z,2.20
2019-03-06T00:53:04.987Z,2.20
2019-03-06T00:54:09.997Z,2.20
2019-03-06T00:55:04.514Z,2.20
2019-03-06T00:56:04.861Z,2.20
2019-03-06T00:57:04.911Z,2.20
2019-03-06T00:58:04.929Z,2.20
2019-03-06T00:59:04.332Z,2.20
2019-03-06T01:00:04.873Z,2.20
2019-03-06T01:01:04.998Z,2.20
2019-03-06T01:02:05.223Z,2.20
2019-03-06T01:03:04.485Z,2.20
2019-03-06T01:04:04.588Z,2.20
2019-03-06T01:05:05.016Z,2.20
2019-03-06T01:06:04.973Z,2.20
2019-03-06T01:07:04.988Z,2.20
2019-03-06T01:08:04.788Z,2.20
2019-03-06T01:09:05.008Z,2.20
2019-03-06T01:10:04.729Z,2.30
2019-03-06T01:11:04.680Z,2.20
2019-03-06T01:12:04.794Z,2.30
2019-03-06T01:13:04.834Z,2.30
2019-03-06T01:14:04.469Z,2.30
2019-03-06T01:15:04.647Z,2.30
2019-03-06T01:16:04.744Z,2.30
2019-03-06T01:17:04.590Z,2.30
2019-03-06T01:18:04.761Z,2.30
2019-03-06T01:19:04.821Z,2.30
2019-03-06T01:20:04.912Z,2.30
2019-03-06T01:21:04.982Z,2.30
2019-03-06T01:22:04.400Z,2.30
2019-03-06T01:23:05.047Z,2.30
2019-03-06T01:24:05.153Z,2.30
2019-03-06T01:25:04.515Z,2.30
2019-03-06T01:26:04.782Z,2.30
2019-03-06T01:27:05.207Z,2.30
2019-03-06T01:28:04.574Z,2.30
2019-03-06T01:29:10.154Z,2.30
2019-03-06T01:30:04.457Z,2.30
2019-03-06T01:31:04.687Z,2.30
2019-03-06T01:32:04.643Z,2.30
2019-03-06T01:33:04.854Z,2.30
2019-03-06T01:34:04.504Z,2.30
2019-03-06T01:35:04.651Z,2.30
2019-03-06T01:36:04.749Z,2.30
2019-03-06T01:37:04.796Z,2.30
2019-03-06T01:38:05.051Z,2.30
2019-03-06T01:39:04.509Z,2.30
2019-03-06T01:40:04.953Z,2.30
2019-03-06T01:41:04.611Z,2.30
2019-03-06T01:42:04.986Z,2.30
2019-03-06T01:43:04.674Z,2.30
2019-03-06T01:44:05.060Z,2.30
2019-03-06T01:45:04.323Z,2.30
2019-03-06T01:46:04.692Z,2.30
2019-03-06T01:47:04.822Z,2.20
2019-03-06T01:48:04.790Z,2.20
2019-03-06T01:49:04.954Z,2.20
2019-03-06T01:50:04.477Z,2.20
2019-03-06T01:51:04.487Z,2.20
2019-03-06T01:52:04.731Z,2.20
2019-03-06T01:53:04.992Z,2.20
2019-03-06T01:54:05.117Z,2.20
2019-03-06T01:55:05.228Z,2.10
2019-03-06T01:56:04.278Z,2.10
2019-03-06T01:57:04.920Z,2.20
2019-03-06T01:58:05.034Z,2.20
2019-03-06T01:59:04.943Z,2.10
2019-03-06T02:00:04.531Z,2.10
2019-03-06T02:01:05.180Z,2.10
2019-03-06T02:02:04.670Z,2.10
2019-03-06T02:03:04.299Z,2.10
2019-03-06T02:04:04.551Z,2.10
2019-03-06T02:05:04.771Z,2.10
2019-03-06T02:06:05.061Z,2.10
2019-03-06T02:07:04.654Z,2.10
2019-03-06T02:08:04.588Z,2.10
2019-03-06T02:09:04.744Z,2.10
2019-03-06T02:10:05.041Z,2.10
2019-03-06T02:11:04.301Z,2.10
2019-03-06T02:12:04.954Z,2.00
2019-03-06T02:13:04.503Z,2.00
2019-03-06T02:14:04.542Z,2.00
2019-03-06T02:15:04.426Z,2.00
2019-03-06T02:16:04.914Z,2.00
2019-03-06T02:17:05.130Z,2.00
2019-03-06T02:18:05.204Z,2.00
2019-03-06T02:19:04.472Z,2.00
2019-03-06T02:20:04.625Z,2.00
2019-03-06T02:21:04.876Z,2.00
2019-03-06T02:22:04.573Z,2.00
2019-03-06T02:23:04.730Z,2.00
2019-03-06T02:24:04.907Z,2.00
2019-03-06T02:25:04.616Z,2.00
2019-03-06T02:26:04.739Z,1.90
2019-03-06T02:27:04.469Z,1.90
2019-03-06T02:28:04.775Z,2.00
2019-03-06T02:29:09.772Z,1.90
2019-03-06T02:30:05.078Z,1.90
2019-03-06T02:31:04.758Z,1.90
2019-03-06T02:32:05.068Z,1.90
2019-03-06T02:33:05.212Z,1.90
2019-03-06T02:34:05.169Z,1.90
2019-03-06T02:35:05.098Z,1.90
2019-03-06T02:36:05.144Z,1.90
2019-03-06T02:37:04.279Z,1.90
2019-03-06T02:38:04.913Z,1.90
2019-03-06T02:39:05.066Z,1.80
2019-03-06T02:40:04.362Z,1.80
2019-03-06T02:41:04.721Z,1.80
2019-03-06T02:42:04.634Z,1.80
2019-03-06T02:43:04.655Z,1.80
2019-03-06T02:44:04.694Z,1.80
2019-03-06T02:45:04.429Z,1.80
2019-03-06T02:46:04.874Z,1.70
2019-03-06T02:47:04.934Z,1.70
2019-03-06T02:48:05.020Z,1.70
2019-03-06T02:49:10.139Z,1.70
2019-03-06T02:50:04.784Z,1.70
2019-03-06T02:51:04.901Z,1.70
2019-03-06T02:52:04.949Z,1.70
2019-03-06T02:53:04.565Z,1.70
2019-03-06T02:54:04.718Z,1.70
2019-03-06T02:55:04.840Z,1.70
2019-03-06T02:56:04.578Z,1.70
2019-03-06T02:57:04.692Z,1.70
2019-03-06T02:58:04.951Z,1.70
2019-03-06T02:59:04.744Z,1.70
2019-03-06T03:00:04.753Z,1.60
2019-03-06T03:01:05.071Z,1.60
2019-03-06T03:02:05.021Z,1.60
2019-03-06T03:03:04.400Z,1.60
2019-03-06T03:04:04.442Z,1.60
2019-03-06T03:05:04.937Z,1.60
2019-03-06T03:06:04.982Z,1.60
2019-03-06T03:07:05.154Z,1.70
2019-03-06T03:08:04.424Z,1.70
2019-03-06T03:09:05.171Z,1.70
2019-03-06T03:10:04.923Z,1.70
2019-03-06T03:11:04.681Z,1.70
2019-03-06T03:12:04.966Z,1.70
2019-03-06T03:13:05.039Z,1.80
2019-03-06T03:14:04.643Z,1.80
2019-03-06T03:15:04.845Z,1.80
2019-03-06T03:16:04.407Z,1.80
2019-03-06T03:17:04.849Z,1.90
2019-03-06T03:18:04.727Z,1.90
2019-03-06T03:19:05.054Z,1.90
2019-03-06T03:20:04.695Z,1.90
2019-03-06T03:21:05.058Z,1.90
2019-03-06T03:22:05.092Z,1.90
2019-03-06T03:23:05.029Z,1.90
2019-03-06T03:24:04.771Z,1.90
2019-03-06T03:25:04.528Z,1.90
2019-03-06T03:26:04.703Z,2.00
2019-03-06T03:27:04.783Z,1.90
2019-03-06T03:28:04.654Z,2.00
2019-03-06T03:29:04.964Z,2.00
2019-03-06T03:30:04.969Z,2.00
2019-03-06T03:31:04.562Z,1.90
2019-03-06T03:32:05.003Z,1.90
2019-03-06T03:33:04.651Z,1.90
2019-03-06T03:34:04.282Z,1.90
2019-03-06T03:35:04.924Z,1.90
2019-03-06T03:36:05.017Z,1.90
2019-03-06T03:37:04.677Z,1.90
2019-03-06T03:38:04.780Z,1.90
2019-03-06T03:39:04.893Z,1.90
2019-03-06T03:40:05.008Z,1.80
2019-03-06T03:41:05.093Z,1.80
2019-03-06T03:42:05.009Z,1.80
2019-03-06T03:43:05.037Z,1.80
2019-03-06T03:44:05.209Z,1.80
2019-03-06T03:45:04.677Z,1.80
2019-03-06T03:46:04.941Z,1.80
2019-03-06T03:47:04.484Z,1.80
2019-03-06T03:48:04.649Z,1.80
2019-03-06T03:49:04.810Z,1.80
2019-03-06T03:50:04.748Z,1.80
2019-03-06T03:51:04.514Z,1.80
2019-03-06T03:52:04.809Z,1.80
2019-03-06T03:53:04.570Z,1.80
2019-03-06T03:54:04.650Z,1.70
2019-03-06T03:55:04.734Z,1.70
2019-03-06T03:56:05.172Z,1.70
2019-03-06T03:57:04.842Z,1.80
2019-03-06T03:58:04.495Z,1.80
2019-03-06T03:59:04.650Z,1.80
2019-03-06T04:00:04.887Z,1.80
2019-03-06T04:01:04.942Z,1.80
2019-03-06T04:02:04.564Z,1.80
2019-03-06T04:03:04.716Z,1.80
2019-03-06T04:04:04.603Z,1.80
2019-03-06T04:05:04.394Z,1.80
2019-03-06T04:06:04.886Z,1.80
2019-03-06T04:07:04.742Z,1.80
2019-03-06T04:08:04.338Z,1.80
2019-03-06T04:09:04.800Z,1.80
2019-03-06T04:10:04.864Z,1.90
2019-03-06T04:11:04.978Z,1.90
2019-03-06T04:12:05.044Z,1.90
2019-03-06T04:13:04.967Z,1.90
2019-03-06T04:14:05.025Z,1.90
2019-03-06T04:15:04.563Z,1.80
2019-03-06T04:16:04.622Z,1.90
2019-03-06T04:17:05.166Z,1.80
2019-03-06T04:18:04.478Z,1.80
2019-03-06T04:19:04.907Z,1.80
2019-03-06T04:20:04.538Z,1.80
2019-03-06T04:21:04.837Z,1.80
2019-03-06T04:22:05.222Z,1.80
2019-03-06T04:23:04.671Z,1.90
2019-03-06T04:24:04.729Z,1.90
2019-03-06T04:25:04.852Z,1.90
2019-03-06T04:26:04.623Z,1.90
2019-03-06T04:27:04.947Z,1.90
2019-03-06T04:28:04.547Z,2.00
2019-03-06T04:29:09.950Z,2.00
2019-03-06T04:30:04.764Z,2.00
2019-03-06T04:31:05.053Z,2.00
2019-03-06T04:32:05.246Z,2.00
2019-03-06T04:33:04.343Z,2.00
2019-03-06T04:34:04.608Z,2.00
2019-03-06T04:35:05.169Z,2.10
2019-03-06T04:36:04.802Z,2.10
2019-03-06T04:37:04.426Z,2.10
2019-03-06T04:38:04.779Z,2.10
2019-03-06T04:39:04.944Z,2.10
2019-03-06T04:40:05.123Z,2.10
2019-03-06T04:41:04.666Z,2.10
2019-03-06T04:42:04.713Z,2.10
2019-03-06T04:43:04.489Z,2.20
2019-03-06T04:44:05.105Z,2.20
2019-03-06T04:45:04.645Z,2.20
2019-03-06T04:46:04.847Z,2.20
2019-03-06T04:47:04.893Z,2.20
2019-03-06T04:48:05.117Z,2.20
2019-03-06T04:49:04.869Z,2.20
2019-03-06T04:50:04.482Z,2.20
2019-03-06T04:51:04.418Z,2.20
2019-03-06T04:52:04.955Z,2.20
2019-03-06T04:53:05.052Z,2.20
2019-03-06T04:54:04.646Z,2.30
2019-03-06T04:55:05.175Z,2.30
2019-03-06T04:56:04.821Z,2.30
2019-03-06T04:57:04.337Z,2.30
2019-03-06T04:58:05.094Z,2.30
2019-03-06T04:59:04.753Z,2.30
2019-03-06T05:00:04.442Z,2.40
2019-03-06T05:01:05.119Z,2.40
2019-03-06T05:02:04.642Z,2.40
2019-03-06T05:03:04.697Z,2.40
2019-03-06T05:04:05.140Z,2.40
2019-03-06T05:05:05.150Z,2.50
2019-03-06T05:06:04.630Z,2.50
2019-03-06T05:07:04.404Z,2.50
2019-03-06T05:08:05.696Z,2.60
2019-03-06T05:09:04.900Z,2.60
2019-03-06T05:10:04.768Z,2.60
2019-03-06T05:11:04.578Z,2.60
2019-03-06T05:12:04.919Z,2.70
2019-03-06T05:13:05.107Z,2.70
2019-03-06T05:14:04.526Z,2.70
2019-03-06T05:15:04.876Z,2.70
2019-03-06T05:16:04.797Z,2.80
2019-03-06T05:17:04.916Z,2.80
2019-03-06T05:18:05.235Z,2.80
2019-03-06T05:19:04.593Z,2.80
2019-03-06T05:20:04.473Z,2.80
2019-03-06T05:21:05.182Z,2.90
2019-03-06T05:22:04.917Z,2.90
2019-03-06T05:23:04.954Z,2.90
2019-03-06T05:24:04.494Z,2.90
2019-03-06T05:25:05.015Z,2.90
2019-03-06T05:26:04.775Z,2.90
2019-03-06T05:27:05.086Z,2.90
2019-03-06T05:28:04.734Z,2.90
2019-03-06T05:29:09.506Z,2.90
2019-03-06T05:30:04.934Z,2.90
2019-03-06T05:31:04.859Z,2.90
2019-03-06T05:32:05.064Z,3.00
2019-03-06T05:33:04.680Z,3.00
2019-03-06T05:34:04.869Z,3.00
2019-03-06T05:35:05.091Z,3.00
2019-03-06T05:36:04.982Z,3.00
2019-03-06T05:37:04.983Z,3.00
2019-03-06T05:38:04.400Z,3.00
2019-03-06T05:39:04.682Z,3.00
2019-03-06T05:40:04.861Z,3.00
2019-03-06T05:41:04.888Z,3.00
2019-03-06T05:42:05.370Z,3.00
2019-03-06T05:43:04.814Z,3.00
2019-03-06T05:44:04.738Z,3.00
2019-03-06T05:45:04.658Z,3.00
2019-03-06T05:46:04.667Z,3.00
2019-03-06T05:47:04.535Z,3.00
2019-03-06T05:48:04.740Z,3.00
2019-03-06T05:49:05.170Z,3.00
2019-03-06T05:50:04.797Z,3.00
2019-03-06T05:51:05.072Z,3.00
2019-03-06T05:52:05.278Z,3.00
2019-03-06T05:53:05.095Z,3.00
2019-03-06T05:54:04.593Z,3.00
2019-03-06T05:55:04.850Z,3.00
2019-03-06T05:56:04.768Z,3.00
2019-03-06T05:57:04.833Z,3.00
2019-03-06T05:58:04.847Z,3.00
2019-03-06T05:59:04.761Z,3.00
2019-03-06T06:00:04.371Z,3.00
2019-03-06T06:01:09.827Z,3.00
2019-03-06T06:02:04.758Z,3.00
2019-03-06T06:03:04.929Z,3.00
2019-03-06T06:04:04.862Z,3.00
2019-03-06T06:05:04.586Z,3.00
2019-03-06T06:06:05.421Z,3.00
2019-03-06T06:07:05.087Z,3.00
2019-03-06T06:08:04.967Z,3.00
2019-03-06T06:09:04.770Z,3.00
2019-03-06T06:10:05.238Z,3.00
2019-03-06T06:11:05.006Z,3.00
2019-03-06T06:12:04.783Z,3.00
2019-03-06T06:13:04.776Z,3.00
2019-03-06T06:14:04.998Z,3.10
2019-03-06T06:15:04.360Z,3.10
2019-03-06T06:16:04.532Z,3.10
2019-03-06T06:17:04.723Z,3.10
2019-03-06T06:18:04.491Z,3.10
2019-03-06T06:19:04.906Z,3.20
2019-03-06T06:20:05.186Z,3.20
2019-03-06T06:21:05.160Z,3.20
2019-03-06T06:22:05.221Z,3.20
2019-03-06T06:23:04.662Z,3.30
2019-03-06T06:24:04.515Z,3.30
2019-03-06T06:25:04.947Z,3.30
2019-03-06T06:26:04.984Z,3.40
2019-03-06T06:27:05.225Z,3.40
2019-03-06T06:28:04.549Z,3.50
2019-03-06T06:29:09.763Z,3.50
2019-03-06T06:30:05.272Z,3.50
2019-03-06T06:31:04.575Z,3.60
2019-03-06T06:32:05.091Z,3.60
2019-03-06T06:33:05.518Z,3.70
2019-03-06T06:34:04.987Z,3.70
2019-03-06T06:35:04.505Z,3.80
2019-03-06T06:36:04.813Z,3.80
2019-03-06T06:37:04.898Z,3.90
2019-03-06T06:38:04.460Z,3.90
2019-03-06T06:39:05.073Z,3.90
2019-03-06T06:40:05.099Z,3.90
2019-03-06T06:41:04.739Z,4.00
2019-03-06T06:42:04.813Z,4.00
2019-03-06T06:43:05.031Z,4.00
2019-03-06T06:44:04.980Z,4.00
2019-03-06T06:45:04.642Z,4.10
2019-03-06T06:46:05.135Z,4.10
2019-03-06T06:47:04.659Z,4.10
2019-03-06T06:48:04.931Z,4.10
2019-03-06T06:49:10.219Z,4.10
2019-03-06T06:50:04.793Z,4.10
2019-03-06T06:51:05.106Z,4.20
2019-03-06T06:52:04.853Z,4.20
2019-03-06T06:53:04.661Z,4.20
2019-03-06T06:54:04.631Z,4.20
2019-03-06T06:55:04.743Z,4.20
2019-03-06T06:56:04.578Z,4.20
2019-03-06T06:57:04.313Z,4.20
2019-03-06T06:58:04.713Z,4.30
2019-03-06T06:59:04.606Z,4.30
2019-03-06T07:00:04.465Z,4.40
2019-03-06T07:01:04.803Z,4.50
2019-03-06T07:02:04.706Z,4.60
2019-03-06T07:03:05.054Z,4.60
2019-03-06T07:04:04.904Z,4.70
2019-03-06T07:05:04.962Z,4.80
2019-03-06T07:06:04.698Z,4.90
2019-03-06T07:07:04.968Z,5.00
2019-03-06T07:08:04.902Z,5.10
2019-03-06T07:09:04.756Z,5.10
2019-03-06T07:10:04.767Z,5.20
2019-03-06T07:11:05.304Z,5.30
2019-03-06T07:12:04.916Z,5.30
2019-03-06T07:13:04.494Z,5.40
2019-03-06T07:14:04.586Z,5.50
2019-03-06T07:15:04.600Z,5.60
2019-03-06T07:16:04.838Z,5.70
2019-03-06T07:17:04.654Z,5.70
2019-03-06T07:18:05.082Z,5.80
2019-03-06T07:19:04.881Z,5.90
2019-03-06T07:20:04.633Z,5.90
2019-03-06T07:21:04.754Z,6.00
2019-03-06T07:22:05.079Z,6.00
2019-03-06T07:23:04.472Z,6.10
2019-03-06T07:24:05.138Z,6.10
2019-03-06T07:25:04.768Z,6.20
2019-03-06T07:26:05.083Z,6.20
2019-03-06T07:27:05.125Z,6.20
2019-03-06T07:28:04.384Z,6.30
2019-03-06T07:29:05.205Z,6.30
2019-03-06T07:30:05.031Z,6.40
2019-03-06T07:31:05.204Z,6.40
2019-03-06T07:32:04.756Z,6.40
2019-03-06T07:33:04.334Z,6.50
2019-03-06T07:34:04.631Z,6.50
2019-03-06T07:35:05.007Z,6.50
2019-03-06T07:36:04.417Z,6.50
2019-03-06T07:37:04.444Z,6.50
2019-03-06T07:38:04.914Z,6.50
2019-03-06T07:39:05.358Z,6.60
2019-03-06T07:40:04.940Z,6.50
2019-03-06T07:41:05.279Z,6.50
2019-03-06T07:42:04.808Z,6.50
2019-03-06T07:43:05.062Z,6.50
2019-03-06T07:44:05.075Z,6.50
2019-03-06T07:45:04.463Z,6.50
2019-03-06T07:46:05.694Z,6.50
2019-03-06T07:47:04.771Z,6.50
2019-03-06T07:48:04.924Z,6.50
2019-03-06T07:49:04.644Z,6.50
2019-03-06T07:50:04.635Z,6.50
2019-03-06T07:51:05.054Z,6.50
2019-03-06T07:52:04.847Z,6.50
2019-03-06T07:53:04.972Z,6.50
2019-03-06T07:54:04.807Z,6.40
2019-03-06T07:55:04.402Z,6.40
2019-03-06T07:56:05.204Z,6.40
2019-03-06T07:57:04.830Z,6.40
2019-03-06T07:58:05.128Z,6.40
2019-03-06T07:59:04.729Z,6.40
2019-03-06T08:00:05.218Z,6.40
2019-03-06T08:01:05.119Z,6.40
2019-03-06T08:02:04.674Z,6.40
2019-03-06T08:03:04.852Z,6.40
2019-03-06T08:04:04.851Z,6.40
2019-03-06T08:05:04.715Z,6.40
2019-03-06T08:06:04.897Z,6.40
2019-03-06T08:07:05.041Z,6.40
2019-03-06T08:08:04.627Z,6.40
2019-03-06T08:09:05.166Z,6.40
2019-03-06T08:10:04.618Z,6.50
2019-03-06T08:11:04.889Z,6.50
2019-03-06T08:12:05.016Z,6.50
2019-03-06T08:13:05.066Z,6.50
2019-03-06T08:14:04.519Z,6.50
2019-03-06T08:15:04.800Z,6.60
2019-03-06T08:16:04.388Z,6.60
2019-03-06T08:17:05.176Z,6.60
2019-03-06T08:18:05.094Z,6.60
2019-03-06T08:19:05.088Z,6.60
2019-03-06T08:20:05.123Z,6.70
2019-03-06T08:21:04.705Z,6.70
2019-03-06T08:22:05.194Z,6.70
2019-03-06T08:23:05.164Z,6.80
2019-03-06T08:24:04.542Z,6.80
2019-03-06T08:25:04.563Z,6.80
2019-03-06T08:26:05.378Z,6.80
2019-03-06T08:27:04.669Z,6.90
2019-03-06T08:28:04.918Z,6.90
2019-03-06T08:29:10.162Z,6.90
2019-03-06T08:30:04.748Z,7.00
2019-03-06T08:31:05.415Z,7.00
2019-03-06T08:32:04.654Z,7.00
2019-03-06T08:33:05.221Z,7.00
2019-03-06T08:34:05.419Z,7.10
2019-03-06T08:35:04.980Z,7.10
2019-03-06T08:36:04.714Z,7.10
2019-03-06T08:37:04.943Z,7.20
2019-03-06T08:38:05.304Z,7.20
2019-03-06T08:39:04.919Z,7.20
2019-03-06T08:40:04.382Z,7.30
2019-03-06T08:41:06.064Z,7.30
2019-03-06T08:42:05.033Z,7.30
2019-03-06T08:43:04.603Z,7.40
2019-03-06T08:44:04.895Z,7.40
2019-03-06T08:45:04.879Z,7.40
2019-03-06T08:46:04.789Z,7.50
2019-03-06T08:47:05.146Z,7.50
2019-03-06T08:48:04.863Z,7.50
2019-03-06T08:49:05.369Z,7.60
2019-03-06T08:50:04.946Z,7.60
2019-03-06T08:51:04.854Z,7.60
2019-03-06T08:52:04.725Z,7.60
2019-03-06T08:53:04.779Z,7.60
2019-03-06T08:54:05.010Z,7.70
2019-03-06T08:55:04.749Z,7.70
2019-03-06T08:56:04.875Z,7.70
2019-03-06T08:57:05.204Z,7.80
2019-03-06T08:58:04.701Z,7.80
2019-03-06T08:59:04.947Z,7.80
2019-03-06T09:00:04.973Z,7.80
2019-03-06T09:01:04.604Z,7.80
2019-03-06T09:02:05.334Z,7.90
2019-03-06T09:03:04.683Z,7.90
2019-03-06T09:04:05.080Z,7.90
2019-03-06T09:05:04.822Z,7.90
2019-03-06T09:06:05.061Z,7.90
2019-03-06T09:07:05.111Z,7.90
2019-03-06T09:08:04.849Z,8.00
2019-03-06T09:09:04.797Z,8.00
2019-03-06T09:10:05.335Z,8.00
2019-03-06T09:11:04.820Z,8.00
2019-03-06T09:12:05.090Z,8.10
2019-03-06T09:13:05.355Z,8.10
2019-03-06T09:14:05.188Z,8.10
2019-03-06T09:15:04.825Z,8.20
2019-03-06T09:16:05.384Z,8.20
2019-03-06T09:17:04.945Z,8.30
2019-03-06T09:18:08.990Z,8.30
2019-03-06T09:19:05.353Z,8.40
2019-03-06T09:20:05.148Z,8.40
2019-03-06T09:21:05.254Z,8.50
2019-03-06T09:22:05.286Z,8.50
2019-03-06T09:23:05.066Z,8.60
2019-03-06T09:24:04.710Z,8.70
2019-03-06T09:25:05.241Z,8.70
2019-03-06T09:26:05.182Z,8.80
2019-03-06T09:27:04.828Z,8.80
2019-03-06T09:28:05.078Z,8.90
2019-03-06T09:29:05.013Z,8.90
2019-03-06T09:30:15.713Z,9.00
2019-03-06T09:31:04.960Z,9.00
2019-03-06T09:32:04.794Z,9.10
2019-03-06T09:33:05.107Z,9.10
2019-03-06T09:34:04.894Z,9.20
2019-03-06T09:35:05.061Z,9.20
2019-03-06T09:36:04.973Z,9.30
2019-03-06T09:37:04.472Z,9.30
2019-03-06T09:38:10.906Z,9.40
2019-03-06T09:39:04.981Z,9.40
2019-03-06T09:40:06.110Z,9.40
2019-03-06T09:41:05.084Z,9.40
2019-03-06T09:42:04.847Z,9.50
2019-03-06T09:43:10.048Z,9.50
2019-03-06T09:44:04.768Z,9.50
2019-03-06T09:45:05.129Z,9.60
2019-03-06T09:46:05.229Z,9.60
2019-03-06T09:47:04.790Z,9.60
2019-03-06T09:48:04.944Z,9.70
2019-03-06T09:49:11.406Z,9.70
2019-03-06T09:50:04.968Z,9.80
2019-03-06T09:51:05.080Z,9.80
2019-03-06T09:52:04.846Z,9.80
2019-03-06T09:53:04.382Z,9.80
2019-03-06T09:54:05.039Z,9.90
2019-03-06T09:55:05.037Z,9.90
2019-03-06T09:56:05.080Z,9.90
2019-03-06T09:57:05.249Z,9.90
2019-03-06T09:58:04.669Z,9.90
2019-03-06T09:59:04.507Z,9.90
2019-03-06T10:00:04.632Z,9.90
2019-03-06T10:01:04.788Z,9.90
2019-03-06T10:02:06.918Z,9.90
2019-03-06T10:03:05.121Z,9.90
2019-03-06T10:04:04.478Z,9.80
2019-03-06T10:05:05.016Z,9.80
2019-03-06T10:06:05.103Z,9.80
2019-03-06T10:07:04.633Z,9.70
2019-03-06T10:08:04.879Z,9.60
2019-03-06T10:09:04.838Z,9.50
2019-03-06T10:10:05.101Z,9.50
2019-03-06T10:11:04.902Z,9.40
2019-03-06T10:12:04.811Z,9.40
2019-03-06T10:13:05.092Z,9.30
2019-03-06T10:14:05.199Z,9.30
2019-03-06T10:15:05.048Z,9.30
2019-03-06T10:16:04.988Z,9.30
2019-03-06T10:17:05.266Z,9.30
2019-03-06T10:18:05.029Z,9.40
2019-03-06T10:19:04.695Z,9.40
2019-03-06T10:20:04.858Z,9.40
2019-03-06T10:21:04.803Z,9.40
2019-03-06T10:22:05.099Z,9.50
2019-03-06T10:23:04.663Z,9.50
2019-03-06T10:24:05.369Z,9.50
2019-03-06T10:25:04.770Z,9.60
2019-03-06T10:26:05.109Z,9.60
2019-03-06T10:27:04.795Z,9.60
2019-03-06T10:28:06.420Z,9.60
2019-03-06T10:29:10.196Z,9.70
2019-03-06T10:30:05.092Z,9.70
2019-03-06T10:31:04.445Z,9.70
2019-03-06T10:32:04.728Z,9.80
2019-03-06T10:33:04.961Z,9.80
2019-03-06T10:34:05.140Z,9.80
2019-03-06T10:35:05.159Z,9.80
2019-03-06T10:36:04.423Z,9.90
2019-03-06T10:38:04.691Z,9.90
2019-03-06T10:39:04.621Z,10.00
2019-03-06T10:40:04.598Z,10.00
2019-03-06T10:41:05.138Z,10.00
2019-03-06T10:42:04.797Z,9.90
2019-03-06T10:43:05.343Z,9.90
2019-03-06T10:44:04.682Z,10.00
2019-03-06T10:45:05.191Z,10.00
2019-03-06T10:46:04.766Z,10.00
2019-03-06T10:47:05.049Z,10.00
2019-03-06T10:48:04.589Z,10.00
2019-03-06T10:49:04.597Z,10.00
2019-03-06T10:50:04.911Z,10.00
2019-03-06T10:51:04.984Z,10.00
2019-03-06T10:52:04.738Z,10.10
2019-03-06T10:53:05.062Z,10.10
2019-03-06T10:54:04.616Z,10.10
2019-03-06T10:55:04.619Z,10.20
2019-03-06T10:56:04.936Z,10.20
2019-03-06T10:57:04.691Z,10.20
2019-03-06T10:58:04.681Z,10.30
2019-03-06T10:59:05.006Z,10.30
2019-03-06T11:00:05.140Z,10.40
2019-03-06T11:01:04.984Z,10.40
2019-03-06T11:02:04.633Z,10.40
2019-03-06T11:03:04.621Z,10.50
2019-03-06T11:04:04.643Z,10.50
2019-03-06T11:05:04.975Z,10.50
2019-03-06T11:06:05.018Z,10.60
2019-03-06T11:07:04.706Z,10.60
2019-03-06T11:08:04.875Z,10.60
2019-03-06T11:09:04.528Z,10.60
2019-03-06T11:10:04.857Z,10.70
2019-03-06T11:11:04.696Z,10.70
2019-03-06T11:12:04.397Z,10.70
2019-03-06T11:13:05.130Z,10.70
2019-03-06T11:14:06.269Z,10.70
2019-03-06T11:15:04.678Z,10.70
2019-03-06T11:16:05.179Z,10.80
2019-03-06T11:17:04.939Z,10.80
2019-03-06T11:18:04.627Z,10.80
2019-03-06T11:19:04.520Z,10.90
2019-03-06T11:20:04.675Z,10.90
2019-03-06T11:21:04.668Z,10.90
2019-03-06T11:22:04.680Z,11.00
2019-03-06T11:23:04.910Z,11.00
2019-03-06T11:24:04.628Z,11.10
2019-03-06T11:25:05.215Z,11.10
2019-03-06T11:26:04.967Z,11.10
2019-03-06T11:27:04.559Z,11.20
2019-03-06T11:28:05.224Z,11.20
2019-03-06T11:29:10.225Z,11.30
2019-03-06T11:30:04.758Z,11.30
2019-03-06T11:31:04.990Z,11.40
2019-03-06T11:32:04.984Z,11.40
2019-03-06T11:33:04.649Z,11.50
2019-03-06T11:34:05.182Z,11.50
2019-03-06T11:35:04.994Z,11.60
2019-03-06T11:36:04.466Z,11.60
2019-03-06T11:37:04.892Z,11.70
2019-03-06T11:38:04.467Z,11.70
2019-03-06T11:39:04.706Z,11.70
2019-03-06T11:40:04.692Z,11.70
2019-03-06T11:41:05.232Z,11.80
2019-03-06T11:42:04.907Z,11.80
2019-03-06T11:43:04.618Z,11.80
2019-03-06T11:44:05.122Z,11.80
2019-03-06T11:45:05.248Z,11.90
2019-03-06T11:46:04.776Z,11.90
2019-03-06T11:47:05.108Z,11.90
2019-03-06T11:48:04.925Z,12.00
2019-03-06T11:49:06.458Z,12.00
2019-03-06T11:50:04.696Z,12.00
2019-03-06T11:51:05.481Z,12.00
2019-03-06T11:52:05.386Z,12.10
2019-03-06T11:53:05.236Z,12.10
2019-03-06T11:54:05.212Z,12.10
2019-03-06T11:55:06.169Z,12.20
2019-03-06T11:56:04.798Z,12.20
2019-03-06T11:57:04.346Z,12.20
2019-03-06T11:58:04.692Z,12.30
2019-03-06T11:59:04.975Z,12.20
2019-03-06T12:00:05.038Z,12.30
2019-03-06T12:01:04.424Z,12.30
2019-03-06T12:02:04.669Z,12.30
2019-03-06T12:03:04.707Z,12.30
2019-03-06T12:04:05.075Z,12.30
2019-03-06T12:05:04.834Z,12.30
2019-03-06T12:06:04.759Z,12.30
2019-03-06T12:07:05.188Z,12.30
2019-03-06T12:08:04.526Z,12.30
2019-03-06T12:09:05.132Z,12.30
2019-03-06T12:10:04.756Z,12.30
2019-03-06T12:11:04.945Z,12.20
2019-03-06T12:12:04.844Z,12.20
2019-03-06T12:13:04.489Z,12.20
2019-03-06T12:14:04.737Z,12.20
2019-03-06T12:15:05.107Z,12.20
2019-03-06T12:16:04.757Z,12.10
2019-03-06T12:17:05.107Z,12.00
2019-03-06T12:18:04.695Z,12.00
2019-03-06T12:19:05.034Z,12.00
2019-03-06T12:20:07.979Z,12.00
2019-03-06T12:21:04.568Z,12.00
2019-03-06T12:22:04.629Z,11.90
2019-03-06T12:23:04.574Z,11.90
2019-03-06T12:24:05.076Z,11.90
2019-03-06T12:25:04.558Z,11.90
2019-03-06T12:26:04.949Z,11.90
2019-03-06T12:27:05.097Z,11.90
2019-03-06T12:28:05.055Z,11.90
2019-03-06T12:29:04.625Z,11.90
2019-03-06T12:30:04.954Z,11.90
2019-03-06T12:31:05.111Z,11.80
2019-03-06T12:32:05.085Z,11.80
2019-03-06T12:33:04.645Z,11.80
2019-03-06T12:34:10.018Z,11.80
2019-03-06T12:35:04.721Z,11.70
2019-03-06T12:36:05.750Z,11.70
2019-03-06T12:37:04.832Z,11.70
2019-03-06T12:38:04.861Z,11.70
2019-03-06T12:39:05.257Z,11.70
2019-03-06T12:40:11.941Z,11.70
2019-03-06T12:41:05.137Z,11.60
2019-03-06T12:42:13.726Z,11.60
2019-03-06T12:43:04.593Z,11.60
2019-03-06T12:44:10.298Z,11.60
2019-03-06T12:45:04.708Z,11.60
2019-03-06T12:46:05.105Z,11.60
2019-03-06T12:47:04.923Z,11.60
2019-03-06T12:48:05.123Z,11.60
2019-03-06T12:49:05.223Z,11.60
2019-03-06T12:50:05.816Z,11.60
2019-03-06T12:51:05.011Z,11.60
2019-03-06T12:52:04.531Z,11.60
2019-03-06T12:53:04.515Z,11.60
2019-03-06T12:54:05.060Z,11.60
2019-03-06T12:55:04.791Z,11.60
2019-03-06T12:56:04.881Z,11.60
2019-03-06T12:57:04.709Z,11.50
2019-03-06T12:58:04.954Z,11.50
2019-03-06T12:59:04.633Z,11.60
2019-03-06T13:00:05.190Z,11.50
2019-03-06T13:01:04.461Z,11.50
2019-03-06T13:02:04.676Z,11.50
2019-03-06T13:03:04.639Z,11.50
2019-03-06T13:04:05.079Z,11.50
2019-03-06T13:05:04.822Z,11.50
2019-03-06T13:06:04.709Z,11.40
2019-03-06T13:07:05.143Z,11.30
2019-03-06T13:08:04.651Z,11.30
2019-03-06T13:09:05.105Z,11.30
2019-03-06T13:10:04.779Z,11.30
2019-03-06T13:11:04.740Z,11.30
2019-03-06T13:12:04.948Z,11.30
2019-03-06T13:13:05.137Z,11.30
2019-03-06T13:14:05.108Z,11.30